createdAt,value
2022-11-15T00:01:18.977Z,77.23
2022-11-15T00:04:07.401Z,77.27
2022-11-15T00:06:54.431Z,77.22
2022-11-15T00:09:45.932Z,77.26
2022-11-15T00:12:34.168Z,77.05
2022-11-15T00:15:22.088Z,76.92
2022-11-15T00:18:16.111Z,77.02
2022-11-15T00:21:12.388Z,77.14
2022-11-15T00:24:00.103Z,77.17
2022-11-15T00:26:48.119Z,77.29
2022-11-15T00:29:38.163Z,77.55
2022-11-15T00:32:27.833Z,77.85
2022-11-15T00:35:16.026Z,78.10
2022-11-15T00:38:03.744Z,77.83
2022-11-15T00:40:51.359Z,78.00
2022-11-15T00:43:41.369Z,78.35
2022-11-15T00:46:29.236Z,78.73
2022-11-15T00:49:16.873Z,78.98
2022-11-15T00:52:05.537Z,79.18
2022-11-15T00:54:53.517Z,79.46
2022-11-15T00:57:42.636Z,79.73
2022-11-15T01:00:30.531Z,79.92
2022-11-15T01:03:18.134Z,79.97
2022-11-15T01:06:06.703Z,80.04
2022-11-15T01:08:54.211Z,80.00
2022-11-15T01:11:42.711Z,79.77
2022-11-15T01:14:30.524Z,79.57
2022-11-15T01:17:17.948Z,79.49
2022-11-15T01:20:08.202Z,79.41
2022-11-15T01:22:57.653Z,79.38
2022-11-15T01:25:45.581Z,79.42
2022-11-15T01:28:35.166Z,79.36
2022-11-15T01:31:23.040Z,79.21
2022-11-15T01:34:10.898Z,79.16
2022-11-15T01:36:59.991Z,79.06
2022-11-15T01:39:50.350Z,78.99
2022-11-15T01:42:38.323Z,78.85
2022-11-15T01:45:26.958Z,78.80
2022-11-15T01:48:14.466Z,78.79
2022-11-15T01:51:04.300Z,78.86
2022-11-15T01:53:56.503Z,78.92
2022-11-15T01:56:53.688Z,78.99
2022-11-15T01:59:44.358Z,78.94
2022-11-15T02:02:31.717Z,78.95
2022-11-15T02:05:20.067Z,78.99
2022-11-15T02:08:07.689Z,78.97
2022-11-15T02:10:55.222Z,79.02
2022-11-15T02:13:43.690Z,79.07
2022-11-15T02:16:57.147Z,79.08
2022-11-15T02:19:59.717Z,79.37
2022-11-15T02:23:43.934Z,79.46
2022-11-15T02:26:53.403Z,79.52
2022-11-15T02:30:25.578Z,79.57
2022-11-15T02:33:37.052Z,79.62
2022-11-15T02:37:15.204Z,79.64
2022-11-15T02:40:23.000Z,79.66
2022-11-15T02:43:31.615Z,79.77
2022-11-15T02:47:00.728Z,79.84
2022-11-15T02:49:54.581Z,79.84
2022-11-15T02:52:48.901Z,79.87
2022-11-15T02:55:42.546Z,79.97
2022-11-15T02:58:50.966Z,80.22
2022-11-15T03:02:11.173Z,80.31
2022-11-15T03:05:36.497Z,80.53
2022-11-15T03:08:58.494Z,80.59
2022-11-15T03:11:50.668Z,80.62
2022-11-15T03:14:51.018Z,80.75
2022-11-15T03:17:50.192Z,80.73
2022-11-15T03:20:37.617Z,80.72
2022-11-15T03:23:25.669Z,80.70
2022-11-15T03:26:14.314Z,80.78
2022-11-15T03:29:18.422Z,80.98
2022-11-15T03:32:19.472Z,81.02
2022-11-15T03:35:10.059Z,81.01
2022-11-15T03:38:22.268Z,81.04
2022-11-15T03:41:20.427Z,81.02
2022-11-15T03:44:19.457Z,81.06
2022-11-15T03:47:22.923Z,81.09
2022-11-15T03:50:17.186Z,81.07
2022-11-15T03:53:04.861Z,81.11
2022-11-15T03:55:52.322Z,81.14
2022-11-15T03:58:40.358Z,81.14
2022-11-15T04:01:28.440Z,81.03
2022-11-15T04:04:16.530Z,80.92
2022-11-15T04:07:03.750Z,80.92
2022-11-15T04:10:03.291Z,80.76
2022-11-15T04:12:50.477Z,80.58
2022-11-15T04:15:37.718Z,80.47
2022-11-15T04:18:25.367Z,80.47
2022-11-15T04:21:33.368Z,80.54
2022-11-15T04:24:21.893Z,80.63
2022-11-15T04:27:09.350Z,80.58
2022-11-15T04:29:57.915Z,80.41
2022-11-15T04:32:46.043Z,80.29
2022-11-15T04:35:34.269Z,80.25
2022-11-15T04:38:21.286Z,80.33
2022-11-15T04:41:08.512Z,80.35
2022-11-15T04:43:56.221Z,80.42
2022-11-15T04:46:42.886Z,80.49
2022-11-15T04:49:31.113Z,80.38
2022-11-15T04:52:19.261Z,80.39
2022-11-15T04:55:08.494Z,80.33
2022-11-15T04:58:03.413Z,80.40
2022-11-15T05:00:51.217Z,80.29
2022-11-15T05:03:57.003Z,80.27
2022-11-15T05:06:44.220Z,80.34
2022-11-15T05:09:31.409Z,80.31
2022-11-15T05:12:18.869Z,80.47
2022-11-15T05:15:08.181Z,80.60
2022-11-15T05:18:01.229Z,80.80
2022-11-15T05:20:47.868Z,80.82
2022-11-15T05:23:35.386Z,80.75
2022-11-15T05:26:22.520Z,80.70
2022-11-15T05:29:12.300Z,80.57
2022-11-15T05:32:00.689Z,80.31
2022-11-15T05:34:48.103Z,80.09
2022-11-15T05:37:36.833Z,79.90
2022-11-15T05:40:25.287Z,79.82
2022-11-15T05:43:13.115Z,79.75
2022-11-15T05:46:00.276Z,79.63
2022-11-15T05:48:50.426Z,79.58
2022-11-15T05:51:38.000Z,79.53
2022-11-15T05:54:25.941Z,79.54
2022-11-15T05:57:13.915Z,79.63
2022-11-15T06:00:01.472Z,79.52
2022-11-15T06:02:50.130Z,79.49
2022-11-15T06:05:38.442Z,79.56
2022-11-15T06:08:26.040Z,79.61
2022-11-15T06:11:14.216Z,79.63
2022-11-15T06:14:02.679Z,79.74
2022-11-15T06:16:50.480Z,79.83
2022-11-15T06:19:37.870Z,79.97
2022-11-15T06:22:27.366Z,80.08
2022-11-15T06:25:15.128Z,80.07
2022-11-15T06:28:04.995Z,79.89
2022-11-15T06:30:53.558Z,79.83
2022-11-15T06:33:41.973Z,79.84
2022-11-15T06:36:29.556Z,79.74
2022-11-15T06:39:17.669Z,79.44
2022-11-15T06:42:06.461Z,79.26
2022-11-15T06:44:54.368Z,79.06
2022-11-15T06:47:48.564Z,78.93
2022-11-15T06:50:37.216Z,79.02
2022-11-15T06:53:25.115Z,79.20
2022-11-15T06:56:13.400Z,79.21
2022-11-15T06:59:01.820Z,79.20
2022-11-15T07:01:50.875Z,79.25
2022-11-15T07:04:39.898Z,79.34
2022-11-15T07:07:27.277Z,79.42
2022-11-15T07:10:16.567Z,79.48
2022-11-15T07:13:05.325Z,79.64
2022-11-15T07:15:53.163Z,79.69
2022-11-15T07:18:41.103Z,79.61
2022-11-15T07:21:28.989Z,79.59
2022-11-15T07:24:17.696Z,79.51
2022-11-15T07:27:06.436Z,79.42
2022-11-15T07:29:55.116Z,79.52
2022-11-15T07:32:43.775Z,79.57
2022-11-15T07:35:33.110Z,79.53
2022-11-15T07:38:20.667Z,79.37
2022-11-15T07:41:08.818Z,79.23
2022-11-15T07:43:56.578Z,79.19
2022-11-15T07:46:45.940Z,79.15
2022-11-15T07:49:34.868Z,78.89
2022-11-15T07:52:22.922Z,78.46
2022-11-15T07:55:10.647Z,78.26
2022-11-15T07:58:09.924Z,78.27
2022-11-15T08:00:57.816Z,78.13
2022-11-15T08:03:45.892Z,78.14
2022-11-15T08:06:34.656Z,78.00
2022-11-15T08:09:23.994Z,77.91
2022-11-15T08:12:11.796Z,77.58
2022-11-15T08:14:59.226Z,77.62
2022-11-15T08:17:47.874Z,77.17
2022-11-15T08:20:36.050Z,77.19
2022-11-15T08:23:24.335Z,77.11
2022-11-15T08:26:12.828Z,76.63
2022-11-15T08:29:01.016Z,75.99
2022-11-15T08:31:49.846Z,75.97
2022-11-15T08:34:39.259Z,76.09
2022-11-15T08:37:26.182Z,76.22
2022-11-15T08:40:14.977Z,76.00
2022-11-15T08:43:03.869Z,75.96
2022-11-15T08:45:51.262Z,76.11
2022-11-15T08:48:38.548Z,76.11
2022-11-15T08:51:25.703Z,75.91
2022-11-15T08:54:13.454Z,75.77
2022-11-15T08:57:03.822Z,75.78
2022-11-15T08:59:50.953Z,75.77
2022-11-15T09:02:40.113Z,76.00
2022-11-15T09:05:27.309Z,75.97
2022-11-15T09:08:40.782Z,76.08
2022-11-15T09:11:09.978Z,76.22
2022-11-15T09:13:58.361Z,75.96
2022-11-15T09:16:46.652Z,75.53
2022-11-15T09:19:34.954Z,75.32
2022-11-15T09:22:23.024Z,75.49
2022-11-15T09:25:11.293Z,75.44
2022-11-15T09:27:59.173Z,76.23
2022-11-15T09:30:46.714Z,75.84
2022-11-15T09:33:34.814Z,76.21
2022-11-15T09:36:24.199Z,75.81
2022-11-15T09:39:11.753Z,76.13
2022-11-15T09:42:26.651Z,75.68
2022-11-15T09:45:29.102Z,75.53
2022-11-15T09:48:40.265Z,75.58
2022-11-15T09:51:42.529Z,75.66
2022-11-15T09:57:16.502Z,75.64
2022-11-15T10:00:44.726Z,75.79
2022-11-15T10:03:13.882Z,75.76
2022-11-15T10:05:50.643Z,75.88
2022-11-15T10:08:36.011Z,75.80
2022-11-15T10:11:36.656Z,75.75
2022-11-15T10:13:54.882Z,75.83
2022-11-15T10:16:48.669Z,75.94
2022-11-15T10:19:35.909Z,75.73
2022-11-15T10:22:18.298Z,76.44
2022-11-15T10:24:47.402Z,76.32
2022-11-15T10:27:19.816Z,76.07
2022-11-15T10:29:50.922Z,76.06
2022-11-15T10:32:21.878Z,76.16
2022-11-15T10:34:52.639Z,75.88
2022-11-15T10:37:32.710Z,75.95
2022-11-15T10:40:15.708Z,75.94
2022-11-15T10:42:46.997Z,75.82
2022-11-15T10:45:27.887Z,75.85
2022-11-15T10:48:17.307Z,75.82
2022-11-15T10:50:48.919Z,75.88
2022-11-15T10:53:41.547Z,75.88
2022-11-15T10:56:13.919Z,75.87
2022-11-15T10:58:44.872Z,76.32
2022-11-15T11:01:23.718Z,76.16
2022-11-15T11:04:12.303Z,76.23
2022-11-15T11:07:02.034Z,76.50
2022-11-15T11:09:42.272Z,76.45
2022-11-15T11:12:15.730Z,76.59
2022-11-15T11:14:45.647Z,76.57
2022-11-15T11:17:46.938Z,76.56
2022-11-15T11:20:35.012Z,76.44
2022-11-15T11:23:25.687Z,76.52
2022-11-15T11:26:34.129Z,76.66
2022-11-15T11:29:24.017Z,76.75
2022-11-15T11:32:05.305Z,76.79
2022-11-15T11:35:01.429Z,77.00
2022-11-15T11:37:45.817Z,77.03
2022-11-15T11:40:53.314Z,76.95
2022-11-15T11:44:21.398Z,76.82
2022-11-15T11:46:57.780Z,76.69
2022-11-15T11:49:41.244Z,76.71
2022-11-15T11:52:42.604Z,76.70
2022-11-15T11:55:24.335Z,76.65
2022-11-15T11:58:22.025Z,76.56
2022-11-15T12:01:13.009Z,76.72
2022-11-15T12:03:52.380Z,76.71
2022-11-15T12:06:41.529Z,76.77
2022-11-15T12:09:45.903Z,76.69
2022-11-15T12:12:35.394Z,76.62
2022-11-15T12:15:15.980Z,76.72
2022-11-15T12:17:46.815Z,76.69
2022-11-15T12:20:20.174Z,76.76
2022-11-15T12:23:00.364Z,76.70
2022-11-15T12:25:55.579Z,76.67
2022-11-15T12:28:36.230Z,76.75
2022-11-15T12:31:35.798Z,77.91
2022-11-15T12:34:30.536Z,77.47
2022-11-15T12:36:59.858Z,77.21
2022-11-15T12:40:25.920Z,76.99
2022-11-15T12:43:02.480Z,76.82
2022-11-15T12:45:40.241Z,76.74
2022-11-15T12:48:41.045Z,76.95
2022-11-15T12:51:12.413Z,76.92
2022-11-15T12:53:41.393Z,76.83
2022-11-15T12:56:18.932Z,76.75
2022-11-15T12:58:57.984Z,77.00
2022-11-15T13:01:36.194Z,76.84
2022-11-15T13:04:26.933Z,76.48
2022-11-15T13:07:01.952Z,76.64
2022-11-15T13:09:38.980Z,76.84
2022-11-15T13:12:30.247Z,77.81
2022-11-15T13:15:16.494Z,77.33
2022-11-15T13:17:54.736Z,76.87
2022-11-15T13:20:33.003Z,76.44
2022-11-15T13:23:13.054Z,76.29
2022-11-15T13:26:05.524Z,76.21
2022-11-15T13:28:47.403Z,76.11
2022-11-15T13:31:24.764Z,76.15
2022-11-15T13:33:54.316Z,76.21
2022-11-15T13:36:34.912Z,76.17
2022-11-15T13:39:09.559Z,76.19
2022-11-15T13:41:50.801Z,76.16
2022-11-15T13:44:25.272Z,76.17
2022-11-15T13:47:10.015Z,76.15
2022-11-15T13:49:39.609Z,76.17
2022-11-15T13:52:14.916Z,76.09
2022-11-15T13:55:17.566Z,76.31
2022-11-15T13:58:04.330Z,76.86
2022-11-15T14:00:44.529Z,77.06
2022-11-15T14:03:24.219Z,76.66
2022-11-15T14:06:17.821Z,76.53
2022-11-15T14:09:16.391Z,76.47
2022-11-15T14:11:57.539Z,76.43
2022-11-15T14:14:28.709Z,76.51
2022-11-15T14:17:02.483Z,76.59
2022-11-15T14:19:35.939Z,76.74
2022-11-15T14:22:25.699Z,76.84
2022-11-15T14:25:18.727Z,76.90
2022-11-15T14:28:36.251Z,77.05
2022-11-15T14:31:31.274Z,77.17
2022-11-15T14:34:16.830Z,77.31
2022-11-15T14:36:48.974Z,77.46
2022-11-15T14:39:18.776Z,77.61
2022-11-15T14:41:47.625Z,77.71
2022-11-15T14:44:19.318Z,77.81
2022-11-15T14:46:49.271Z,77.91
2022-11-15T14:49:19.392Z,77.97
2022-11-15T14:51:49.204Z,77.94
2022-11-15T14:54:19.076Z,78.04
2022-11-15T14:56:48.700Z,78.09
2022-11-15T14:59:18.781Z,79.24
2022-11-15T15:01:54.553Z,78.84
2022-11-15T15:04:25.600Z,78.54
2022-11-15T15:06:55.199Z,78.34
2022-11-15T15:09:24.829Z,78.10
2022-11-15T15:11:55.531Z,78.10
2022-11-15T15:14:29.230Z,78.11
2022-11-15T15:17:04.073Z,78.06
2022-11-15T15:19:34.141Z,78.07
2022-11-15T15:22:05.600Z,78.04
2022-11-15T15:24:38.408Z,78.06
2022-11-15T15:27:10.018Z,79.04
2022-11-15T15:29:40.298Z,80.61
2022-11-15T15:32:14.768Z,79.76
2022-11-15T15:34:44.998Z,79.10
2022-11-15T15:37:25.948Z,78.59
2022-11-15T15:39:57.248Z,78.43
2022-11-15T15:42:26.683Z,78.19
2022-11-15T15:44:57.535Z,78.18
2022-11-15T15:47:28.156Z,78.16
2022-11-15T15:49:59.094Z,78.17
2022-11-15T15:52:29.796Z,78.13
2022-11-15T15:54:59.133Z,78.11
2022-11-15T15:57:29.319Z,78.29
2022-11-15T15:59:59.079Z,78.34
2022-11-15T16:02:28.909Z,78.40
2022-11-15T16:04:58.921Z,79.05
2022-11-15T16:07:30.208Z,78.85
2022-11-15T16:10:01.908Z,78.67
2022-11-15T16:12:35.337Z,78.57
2022-11-15T16:15:06.505Z,78.53
2022-11-15T16:17:40.553Z,78.54
2022-11-15T16:20:34.301Z,78.49
2022-11-15T16:23:08.981Z,78.44
2022-11-15T16:25:50.062Z,78.45
2022-11-15T16:28:36.944Z,78.44
2022-11-15T16:31:18.908Z,78.51
2022-11-15T16:33:49.754Z,78.66
2022-11-15T16:36:30.242Z,78.68
2022-11-15T16:38:59.501Z,78.62
2022-11-15T16:41:29.349Z,78.54
2022-11-15T16:43:58.705Z,78.61
2022-11-15T16:46:29.788Z,78.65
2022-11-15T16:48:59.668Z,78.72
2022-11-15T16:51:29.316Z,78.74
2022-11-15T16:53:58.377Z,78.74
2022-11-15T16:56:29.394Z,78.78
2022-11-15T16:58:59.384Z,78.71
2022-11-15T17:01:32.190Z,78.78
2022-11-15T17:04:16.380Z,78.76
2022-11-15T17:06:47.279Z,78.74
2022-11-15T17:09:25.969Z,78.78
2022-11-15T17:11:55.407Z,78.79
2022-11-15T17:14:24.994Z,78.79
2022-11-15T17:16:55.254Z,78.83
2022-11-15T17:19:24.984Z,78.89
2022-11-15T17:21:56.338Z,79.00
2022-11-15T17:24:27.436Z,79.07
2022-11-15T17:26:56.923Z,79.05
2022-11-15T17:29:26.879Z,79.03
2022-11-15T17:31:57.745Z,79.04
2022-11-15T17:34:28.280Z,79.09
2022-11-15T17:36:58.873Z,79.09
2022-11-15T17:39:28.545Z,79.06
2022-11-15T17:41:59.077Z,79.11
2022-11-15T17:44:29.592Z,79.10
2022-11-15T17:47:00.319Z,79.12
2022-11-15T17:49:29.907Z,79.14
2022-11-15T17:51:59.010Z,79.10
2022-11-15T17:54:28.846Z,79.09
2022-11-15T17:56:58.842Z,79.15
2022-11-15T17:59:28.440Z,79.18
2022-11-15T18:01:57.434Z,79.17
2022-11-15T18:04:28.905Z,79.25
2022-11-15T18:06:59.497Z,79.30
2022-11-15T18:09:28.713Z,79.29
2022-11-15T18:11:59.872Z,79.32
2022-11-15T18:14:31.550Z,79.37
2022-11-15T18:17:01.341Z,79.37
2022-11-15T18:19:31.301Z,79.48
2022-11-15T18:22:01.416Z,79.54
2022-11-15T18:24:35.645Z,79.57
2022-11-15T18:27:07.236Z,79.63
2022-11-15T18:29:38.088Z,79.67
2022-11-15T18:32:10.657Z,79.69
2022-11-15T18:34:40.677Z,79.78
2022-11-15T18:37:10.287Z,79.83
2022-11-15T18:39:39.356Z,79.88
2022-11-15T18:42:09.982Z,79.84
2022-11-15T18:44:56.304Z,79.81
2022-11-15T18:47:25.239Z,79.82
2022-11-15T18:49:54.221Z,79.85
2022-11-15T18:52:23.484Z,79.83
2022-11-15T18:54:53.942Z,79.84
2022-11-15T18:57:23.726Z,79.82
2022-11-15T18:59:53.062Z,79.83
2022-11-15T19:02:22.184Z,79.85
2022-11-15T19:04:51.018Z,79.86
2022-11-15T19:07:20.447Z,79.82
2022-11-15T19:09:51.431Z,79.83
2022-11-15T19:12:20.666Z,79.80
2022-11-15T19:14:50.507Z,79.82
2022-11-15T19:17:20.105Z,79.87
2022-11-15T19:19:49.586Z,79.85
2022-11-15T19:22:19.518Z,79.83
2022-11-15T19:24:48.744Z,79.79
2022-11-15T19:27:18.120Z,79.78
2022-11-15T19:29:47.245Z,79.79
2022-11-15T19:32:17.645Z,79.77
2022-11-15T19:34:47.919Z,79.81
2022-11-15T19:37:17.151Z,79.76
2022-11-15T19:39:48.115Z,79.75
2022-11-15T19:42:16.925Z,79.84
2022-11-15T19:44:46.039Z,79.89
2022-11-15T19:47:14.881Z,79.89
2022-11-15T19:49:44.084Z,79.88
2022-11-15T19:52:13.317Z,79.81
2022-11-15T19:54:42.417Z,79.87
2022-11-15T19:57:29.491Z,79.94
2022-11-15T20:00:00.842Z,79.98
2022-11-15T20:02:29.386Z,79.97
2022-11-15T20:04:58.918Z,79.88
2022-11-15T20:07:27.959Z,79.90
2022-11-15T20:09:57.961Z,79.92
2022-11-15T20:12:27.170Z,79.96
2022-11-15T20:14:56.273Z,80.05
2022-11-15T20:17:26.578Z,80.03
2022-11-15T20:19:56.583Z,79.97
2022-11-15T20:22:26.103Z,79.98
2022-11-15T20:24:55.297Z,80.01
2022-11-15T20:27:26.423Z,80.04
2022-11-15T20:29:55.247Z,80.00
2022-11-15T20:32:24.058Z,80.00
2022-11-15T20:34:54.210Z,80.03
2022-11-15T20:37:24.765Z,79.99
2022-11-15T20:39:54.484Z,79.95
2022-11-15T20:42:23.315Z,79.94
2022-11-15T20:44:52.474Z,79.94
2022-11-15T20:47:39.882Z,79.95
2022-11-15T20:50:35.544Z,79.91
2022-11-15T20:52:41.573Z,79.91
2022-11-15T20:55:10.830Z,79.92
2022-11-15T20:57:57.778Z,79.90
2022-11-15T21:00:26.733Z,79.81
2022-11-15T21:02:56.188Z,79.78
2022-11-15T21:05:27.496Z,79.83
2022-11-15T21:07:56.558Z,79.77
2022-11-15T21:10:44.699Z,79.72
2022-11-15T21:13:31.173Z,79.82
2022-11-15T21:16:02.958Z,79.75
2022-11-15T21:18:33.277Z,79.72
2022-11-15T21:21:04.722Z,79.66
2022-11-15T21:23:33.547Z,79.62
2022-11-15T21:26:05.071Z,79.64
2022-11-15T21:28:34.603Z,79.67
2022-11-15T21:31:05.387Z,79.72
2022-11-15T21:33:35.422Z,79.70
2022-11-15T21:36:05.394Z,79.71
2022-11-15T21:38:34.813Z,79.65
2022-11-15T21:41:05.475Z,79.66
2022-11-15T21:43:35.448Z,79.68
2022-11-15T21:46:06.546Z,79.71
2022-11-15T21:48:37.034Z,79.68
2022-11-15T21:51:08.166Z,79.67
2022-11-15T21:53:38.637Z,79.64
2022-11-15T21:56:08.507Z,79.63
2022-11-15T21:58:37.650Z,79.66
2022-11-15T22:01:25.962Z,79.66
2022-11-15T22:03:55.002Z,79.60
2022-11-15T22:06:24.358Z,79.59
2022-11-15T22:08:53.771Z,79.60
2022-11-15T22:11:22.952Z,79.59
2022-11-15T22:13:51.777Z,79.56
2022-11-15T22:16:20.380Z,79.54
2022-11-15T22:18:49.187Z,79.57
2022-11-15T22:21:19.299Z,79.55
2022-11-15T22:23:48.464Z,79.52
2022-11-15T22:26:23.250Z,79.52
2022-11-15T22:28:50.272Z,79.49
2022-11-15T22:31:19.879Z,79.46
2022-11-15T22:33:49.639Z,79.47
2022-11-15T22:36:19.932Z,79.49
2022-11-15T22:38:48.904Z,79.51
2022-11-15T22:41:18.071Z,79.49
2022-11-15T22:43:48.225Z,79.50
2022-11-15T22:46:17.335Z,79.49
2022-11-15T22:48:46.227Z,79.41
2022-11-15T22:51:15.878Z,79.48
2022-11-15T22:53:45.096Z,79.49
2022-11-15T22:56:19.016Z,79.51
2022-11-15T22:58:44.736Z,79.52
2022-11-15T23:01:20.943Z,79.57
2022-11-15T23:03:50.079Z,79.63
2022-11-15T23:06:19.305Z,79.63
2022-11-15T23:08:48.460Z,79.62
2022-11-15T23:11:36.648Z,79.71
2022-11-15T23:14:06.768Z,79.77
2022-11-15T23:16:35.733Z,79.84
2022-11-15T23:19:08.889Z,79.87
2022-11-15T23:21:59.762Z,79.93
2022-11-15T23:24:30.710Z,79.95
2022-11-15T23:27:03.280Z,79.94
2022-11-15T23:29:35.060Z,79.94
2022-11-15T23:32:23.252Z,80.03
2022-11-15T23:34:51.961Z,80.09
2022-11-15T23:37:21.191Z,80.10
2022-11-15T23:39:50.275Z,80.12
2022-11-15T23:42:22.361Z,80.17
2022-11-15T23:44:51.306Z,80.18
2022-11-15T23:47:20.398Z,80.24
2022-11-15T23:49:49.025Z,80.41
2022-11-15T23:52:18.233Z,80.50
2022-11-15T23:54:46.777Z,80.54
2022-11-15T23:57:15.541Z,80.59
2022-11-15T23:59:45.922Z,80.76
